createdAt,value
2018-09-27T00:00:11.182Z,1022.81
2018-09-27T00:01:11.203Z,1022.79
2018-09-27T00:02:11.226Z,1022.77
2018-09-27T00:03:11.247Z,1022.78
2018-09-27T00:04:11.269Z,1022.79
2018-09-27T00:05:11.290Z,1022.84
2018-09-27T00:07:11.333Z,1022.81
2018-09-27T00:08:11.355Z,1022.73
2018-09-27T00:09:11.376Z,1022.75
2018-09-27T00:10:11.398Z,1022.8
2018-09-27T00:11:11.420Z,1022.84
2018-09-27T00:12:11.440Z,1022.79
2018-09-27T00:13:11.462Z,1022.8
2018-09-27T00:14:11.490Z,1022.83
2018-09-27T00:15:11.505Z,1022.8
2018-09-27T00:16:11.525Z,1022.79
2018-09-27T00:17:11.546Z,1022.82
2018-09-27T00:18:11.570Z,1022.78
2018-09-27T00:19:11.591Z,1022.7
2018-09-27T00:20:11.613Z,1022.67
2018-09-27T00:22:11.657Z,1022.61
2018-09-27T00:23:11.677Z,1022.65
2018-09-27T00:24:11.700Z,1022.63
2018-09-27T00:25:11.720Z,1022.76
2018-09-27T00:26:11.742Z,1022.71
2018-09-27T00:27:11.764Z,1022.71
2018-09-27T00:28:11.786Z,1022.64
2018-09-27T00:29:11.808Z,1022.61
2018-09-27T00:30:11.828Z,1022.61
2018-09-27T00:31:11.853Z,1022.63
2018-09-27T00:32:11.872Z,1022.6
2018-09-27T00:33:11.894Z,1022.65
2018-09-27T00:34:11.919Z,1022.66
2018-09-27T00:35:11.936Z,1022.64
2018-09-27T00:36:11.958Z,1022.61
2018-09-27T00:37:11.980Z,1022.59
2018-09-27T00:38:12.000Z,1022.6
2018-09-27T00:39:12.023Z,1022.59
2018-09-27T00:40:12.044Z,1022.6
2018-09-27T00:41:12.064Z,1022.59
2018-09-27T00:42:12.087Z,1022.59
2018-09-27T00:43:12.108Z,1022.57
2018-09-27T00:44:12.131Z,1022.59
2018-09-27T00:45:12.151Z,1022.6
2018-09-27T00:46:12.172Z,1022.56
2018-09-27T00:47:12.195Z,1022.66
2018-09-27T00:48:12.217Z,1022.62
2018-09-27T00:49:12.240Z,1022.65
2018-09-27T00:50:12.257Z,1022.62
2018-09-27T00:51:12.284Z,1022.66
2018-09-27T00:52:12.300Z,1022.67
2018-09-27T00:54:12.344Z,1022.61
2018-09-27T00:55:12.366Z,1022.66
2018-09-27T00:56:12.388Z,1022.59
2018-09-27T00:57:12.411Z,1022.6
2018-09-27T00:58:12.431Z,1022.57
2018-09-27T00:59:12.453Z,1022.58
2018-09-27T01:00:12.472Z,1022.61
2018-09-27T01:01:12.495Z,1022.62
2018-09-27T01:02:12.518Z,1022.61
2018-09-27T01:03:12.539Z,1022.61
2018-09-27T01:04:12.560Z,1022.57
2018-09-27T01:05:12.581Z,1022.63
2018-09-27T01:06:12.603Z,1022.64
2018-09-27T01:07:12.624Z,1022.6
2018-09-27T01:08:12.645Z,1022.6
2018-09-27T01:10:12.690Z,1022.59
2018-09-27T01:11:12.710Z,1022.63
2018-09-27T01:12:12.732Z,1022.63
2018-09-27T01:13:12.754Z,1022.59
2018-09-27T01:14:12.775Z,1022.62
2018-09-27T01:15:12.798Z,1022.62
2018-09-27T01:16:12.918Z,1022.58
2018-09-27T01:17:12.840Z,1022.61
2018-09-27T01:18:12.861Z,1022.56
2018-09-27T01:19:12.885Z,1022.62
2018-09-27T01:20:12.905Z,1022.58
2018-09-27T01:21:12.926Z,1022.64
2018-09-27T01:22:12.947Z,1022.59
2018-09-27T01:23:12.968Z,1022.64
2018-09-27T01:24:12.990Z,1022.6
2018-09-27T01:26:13.032Z,1022.61
2018-09-27T01:27:13.055Z,1022.65
2018-09-27T01:28:13.077Z,1022.57
2018-09-27T01:29:13.098Z,1022.57
2018-09-27T01:30:13.119Z,1022.6
2018-09-27T01:31:13.142Z,1022.6
2018-09-27T01:32:13.164Z,1022.57
2018-09-27T01:33:13.184Z,1022.54
2018-09-27T01:34:13.205Z,1022.56
2018-09-27T01:35:13.228Z,1022.5
2018-09-27T01:36:13.248Z,1022.55
2018-09-27T01:37:13.270Z,1022.54
2018-09-27T01:38:13.292Z,1022.51
2018-09-27T01:39:13.314Z,1022.49
2018-09-27T01:40:13.335Z,1022.52
2018-09-27T01:42:13.378Z,1022.48
2018-09-27T01:43:13.400Z,1022.5
2018-09-27T01:44:13.424Z,1022.53
2018-09-27T01:45:13.443Z,1022.47
2018-09-27T01:46:13.464Z,1022.54
2018-09-27T01:47:13.529Z,1022.55
2018-09-27T01:48:13.508Z,1022.53
2018-09-27T01:49:13.530Z,1022.59
2018-09-27T01:50:13.551Z,1022.59
2018-09-27T01:51:13.573Z,1022.61
2018-09-27T01:52:13.608Z,1022.61
2018-09-27T01:53:13.616Z,1022.63
2018-09-27T01:54:13.638Z,1022.6
2018-09-27T01:55:13.658Z,1022.61
2018-09-27T01:57:13.704Z,1022.64
2018-09-27T01:58:13.724Z,1022.64
2018-09-27T01:59:13.746Z,1022.63
2018-09-27T02:00:13.768Z,1022.64
2018-09-27T02:01:13.789Z,1022.58
2018-09-27T02:02:13.811Z,1022.56
2018-09-27T02:03:13.832Z,1022.54
2018-09-27T02:04:13.855Z,1022.53
2018-09-27T02:05:13.875Z,1022.55
2018-09-27T02:06:13.896Z,1022.54
2018-09-27T02:07:13.919Z,1022.56
2018-09-27T02:08:13.941Z,1022.57
2018-09-27T02:09:13.961Z,1022.57
2018-09-27T02:10:13.984Z,1022.49
2018-09-27T02:11:14.011Z,1022.51
2018-09-27T02:12:14.027Z,1022.57
2018-09-27T02:13:14.051Z,1022.54
2018-09-27T02:14:14.070Z,1022.54
2018-09-27T02:15:14.091Z,1022.51
2018-09-27T02:16:14.114Z,1022.5
2018-09-27T02:17:14.135Z,1022.51
2018-09-27T02:18:14.157Z,1022.49
2018-09-27T02:19:14.179Z,1022.5
2018-09-27T02:20:14.198Z,1022.44
2018-09-27T02:21:14.221Z,1022.5
2018-09-27T02:22:14.242Z,1022.49
2018-09-27T02:23:14.264Z,1022.47
2018-09-27T02:24:14.286Z,1022.47
2018-09-27T02:25:14.307Z,1022.53
2018-09-27T02:26:14.329Z,1022.54
2018-09-27T02:27:14.350Z,1022.53
2018-09-27T02:29:14.440Z,1022.59
2018-09-27T02:30:14.416Z,1022.5
2018-09-27T02:31:14.436Z,1022.54
2018-09-27T02:32:14.457Z,1022.56
2018-09-27T02:33:14.479Z,1022.52
2018-09-27T02:34:14.503Z,1022.57
2018-09-27T02:35:14.524Z,1022.51
2018-09-27T02:36:14.545Z,1022.53
2018-09-27T02:37:14.566Z,1022.45
2018-09-27T02:38:14.738Z,1022.48
2018-09-27T02:39:14.612Z,1022.55
2018-09-27T02:40:14.638Z,1022.53
2018-09-27T02:41:14.653Z,1022.53
2018-09-27T02:42:14.674Z,1022.55
2018-09-27T02:43:14.695Z,1022.57
2018-09-27T02:45:14.739Z,1022.5
2018-09-27T02:46:14.759Z,1022.57
2018-09-27T02:47:14.783Z,1022.59
2018-09-27T02:48:14.803Z,1022.56
2018-09-27T02:49:14.823Z,1022.56
2018-09-27T02:50:14.845Z,1022.56
2018-09-27T02:51:14.868Z,1022.56
2018-09-27T02:52:14.889Z,1022.58
2018-09-27T02:53:14.909Z,1022.55
2018-09-27T02:54:14.944Z,1022.58
2018-09-27T02:55:14.954Z,1022.48
2018-09-27T02:56:14.975Z,1022.51
2018-09-27T02:57:14.997Z,1022.47
2018-09-27T02:58:15.017Z,1022.53
2018-09-27T02:59:15.039Z,1022.55
2018-09-27T03:01:15.081Z,1022.5
2018-09-27T03:02:15.102Z,1022.49
2018-09-27T03:03:15.124Z,1022.48
2018-09-27T03:04:15.145Z,1022.5
2018-09-27T03:05:15.167Z,1022.51
2018-09-27T03:06:15.189Z,1022.55
2018-09-27T03:07:15.210Z,1022.52
2018-09-27T03:08:15.232Z,1022.49
2018-09-27T03:09:15.252Z,1022.48
2018-09-27T03:10:15.278Z,1022.49
2018-09-27T03:11:15.295Z,1022.49
2018-09-27T03:12:15.316Z,1022.49
2018-09-27T03:13:15.341Z,1022.49
2018-09-27T03:14:15.361Z,1022.5
2018-09-27T03:15:15.381Z,1022.47
2018-09-27T03:17:15.428Z,1022.51
2018-09-27T03:18:15.446Z,1022.48
2018-09-27T03:19:15.467Z,1022.5
2018-09-27T03:20:15.489Z,1022.47
2018-09-27T03:21:15.526Z,1022.49
2018-09-27T03:22:15.532Z,1022.5
2018-09-27T03:23:15.556Z,1022.48
2018-09-27T03:24:15.575Z,1022.45
2018-09-27T03:25:15.604Z,1022.45
2018-09-27T03:26:15.621Z,1022.45
2018-09-27T03:27:15.639Z,1022.45
2018-09-27T03:28:15.660Z,1022.47
2018-09-27T03:29:15.682Z,1022.47
2018-09-27T03:30:15.705Z,1022.47
2018-09-27T03:32:15.747Z,1022.48
2018-09-27T03:33:15.769Z,1022.49
2018-09-27T03:34:15.789Z,1022.46
2018-09-27T03:35:15.975Z,1022.42
2018-09-27T03:36:15.834Z,1022.47
2018-09-27T03:37:15.854Z,1022.42
2018-09-27T03:38:15.877Z,1022.39
2018-09-27T03:39:15.897Z,1022.37
2018-09-27T03:40:16.011Z,1022.4
2018-09-27T03:41:15.941Z,1022.38
2018-09-27T03:42:15.962Z,1022.39
2018-09-27T03:43:15.984Z,1022.44
2018-09-27T03:44:16.004Z,1022.42
2018-09-27T03:45:16.027Z,1022.42
2018-09-27T03:46:16.049Z,1022.41
2018-09-27T03:47:16.069Z,1022.41
2018-09-27T03:48:16.091Z,1022.46
2018-09-27T03:49:16.112Z,1022.39
2018-09-27T03:50:16.134Z,1022.43
2018-09-27T03:51:16.155Z,1022.43
2018-09-27T03:52:16.176Z,1022.43
2018-09-27T03:53:16.199Z,1022.39
2018-09-27T03:54:16.220Z,1022.41
2018-09-27T03:55:16.240Z,1022.41
2018-09-27T03:56:16.262Z,1022.42
2018-09-27T03:57:16.286Z,1022.41
2018-09-27T03:58:16.304Z,1022.42
2018-09-27T03:59:16.329Z,1022.41
2018-09-27T04:00:16.348Z,1022.42
2018-09-27T04:01:16.372Z,1022.43
2018-09-27T04:02:16.390Z,1022.45
2018-09-27T04:04:16.435Z,1022.51
2018-09-27T04:05:16.656Z,1022.43
2018-09-27T04:06:16.476Z,1022.39
2018-09-27T04:07:16.498Z,1022.39
2018-09-27T04:08:16.520Z,1022.36
2018-09-27T04:09:16.541Z,1022.34
2018-09-27T04:10:16.563Z,1022.3
2018-09-27T04:11:16.584Z,1022.31
2018-09-27T04:12:16.611Z,1022.29
2018-09-27T04:13:16.626Z,1022.31
2018-09-27T04:14:16.648Z,1022.35
2018-09-27T04:15:16.670Z,1022.31
2018-09-27T04:16:16.692Z,1022.27
2018-09-27T04:17:16.716Z,1022.32
2018-09-27T04:18:16.735Z,1022.35
2018-09-27T04:20:16.786Z,1022.31
2018-09-27T04:21:16.797Z,1022.26
2018-09-27T04:22:16.821Z,1022.28
2018-09-27T04:23:16.842Z,1022.32
2018-09-27T04:24:16.863Z,1022.32
2018-09-27T04:25:16.884Z,1022.37
2018-09-27T04:26:16.907Z,1022.31
2018-09-27T04:27:16.928Z,1022.33
2018-09-27T04:28:16.949Z,1022.36
2018-09-27T04:29:16.971Z,1022.37
2018-09-27T04:30:16.993Z,1022.4
2018-09-27T04:31:17.015Z,1022.36
2018-09-27T04:32:17.036Z,1022.39
2018-09-27T04:33:17.058Z,1022.46
2018-09-27T04:34:17.080Z,1022.44
2018-09-27T04:36:17.121Z,1022.46
2018-09-27T04:37:17.143Z,1022.44
2018-09-27T04:38:17.165Z,1022.43
2018-09-27T04:39:17.186Z,1022.44
2018-09-27T04:40:17.208Z,1022.45
2018-09-27T04:41:17.230Z,1022.5
2018-09-27T04:42:17.252Z,1022.52
2018-09-27T04:43:17.271Z,1022.51
2018-09-27T04:44:17.294Z,1022.52
2018-09-27T04:45:17.316Z,1022.5
2018-09-27T04:46:17.337Z,1022.45
2018-09-27T04:47:17.360Z,1022.49
2018-09-27T04:48:17.381Z,1022.44
2018-09-27T04:49:17.403Z,1022.44
2018-09-27T04:50:17.424Z,1022.45
2018-09-27T04:52:17.466Z,1022.45
2018-09-27T04:53:17.489Z,1022.4
2018-09-27T04:54:17.530Z,1022.41
2018-09-27T04:55:17.532Z,1022.41
2018-09-27T04:56:17.556Z,1022.41
2018-09-27T04:57:17.575Z,1022.44
2018-09-27T04:58:17.597Z,1022.39
2018-09-27T04:59:17.623Z,1022.38
2018-09-27T05:00:17.640Z,1022.42
2018-09-27T05:01:17.661Z,1022.4
2018-09-27T05:02:17.683Z,1022.45
2018-09-27T05:03:17.704Z,1022.44
2018-09-27T05:04:17.730Z,1022.5
2018-09-27T05:05:17.749Z,1022.47
2018-09-27T05:07:17.793Z,1022.5
2018-09-27T05:08:17.813Z,1022.48
2018-09-27T05:09:17.835Z,1022.49
2018-09-27T05:10:17.857Z,1022.48
2018-09-27T05:11:17.880Z,1022.46
2018-09-27T05:12:17.899Z,1022.46
2018-09-27T05:13:17.922Z,1022.44
2018-09-27T05:14:17.943Z,1022.45
2018-09-27T05:15:17.964Z,1022.45
2018-09-27T05:16:17.986Z,1022.46
2018-09-27T05:17:18.008Z,1022.43
2018-09-27T05:18:18.031Z,1022.45
2018-09-27T05:19:18.051Z,1022.5
2018-09-27T05:20:18.086Z,1022.49
2018-09-27T05:21:18.095Z,1022.49
2018-09-27T05:22:18.117Z,1022.42
2018-09-27T05:23:18.138Z,1022.46
2018-09-27T05:24:18.160Z,1022.42
2018-09-27T05:25:18.185Z,1022.44
2018-09-27T05:26:18.203Z,1022.38
2018-09-27T05:27:18.311Z,1022.43
2018-09-27T05:28:18.247Z,1022.4
2018-09-27T05:29:18.268Z,1022.38
2018-09-27T05:30:18.290Z,1022.44
2018-09-27T05:31:18.311Z,1022.47
2018-09-27T05:32:18.333Z,1022.46
2018-09-27T05:33:18.355Z,1022.48
2018-09-27T05:34:18.376Z,1022.47
2018-09-27T05:35:18.404Z,1022.49
2018-09-27T05:36:18.424Z,1022.51
2018-09-27T05:37:18.441Z,1022.5
2018-09-27T05:39:18.485Z,1022.47
2018-09-27T05:40:18.507Z,1022.5
2018-09-27T05:41:18.528Z,1022.54
2018-09-27T05:42:18.552Z,1022.59
2018-09-27T05:43:18.572Z,1022.54
2018-09-27T05:44:18.600Z,1022.53
2018-09-27T05:45:18.615Z,1022.49
2018-09-27T05:46:18.641Z,1022.5
2018-09-27T05:47:18.661Z,1022.54
2018-09-27T05:48:18.680Z,1022.54
2018-09-27T05:49:18.700Z,1022.53
2018-09-27T05:50:18.723Z,1022.49
2018-09-27T05:51:18.748Z,1022.55
2018-09-27T05:52:18.767Z,1022.6
2018-09-27T05:53:18.788Z,1022.62
2018-09-27T05:55:18.842Z,1022.64
2018-09-27T05:56:18.857Z,1022.64
2018-09-27T05:57:18.875Z,1022.58
2018-09-27T05:58:18.898Z,1022.56
2018-09-27T05:59:18.919Z,1022.58
2018-09-27T06:00:18.941Z,1022.56
2018-09-27T06:01:18.964Z,1022.56
2018-09-27T06:02:18.983Z,1022.58
2018-09-27T06:03:19.006Z,1022.6
2018-09-27T06:04:19.036Z,1022.57
2018-09-27T06:05:19.050Z,1022.62
2018-09-27T06:06:19.072Z,1022.54
2018-09-27T06:07:19.093Z,1022.53
2018-09-27T06:08:19.127Z,1022.57
2018-09-27T06:09:19.146Z,1022.63
2018-09-27T06:11:19.189Z,1022.59
2018-09-27T06:12:19.203Z,1022.59
2018-09-27T06:13:19.228Z,1022.59
2018-09-27T06:14:19.249Z,1022.55
2018-09-27T06:15:19.267Z,1022.59
2018-09-27T06:16:19.291Z,1022.62
2018-09-27T06:17:19.313Z,1022.57
2018-09-27T06:18:19.334Z,1022.54
2018-09-27T06:19:19.400Z,1022.63
2018-09-27T06:20:19.378Z,1022.57
2018-09-27T06:21:19.399Z,1022.63
2018-09-27T06:22:19.421Z,1022.61
2018-09-27T06:23:19.442Z,1022.63
2018-09-27T06:24:19.467Z,1022.59
2018-09-27T06:25:19.488Z,1022.58
2018-09-27T06:27:19.533Z,1022.71
2018-09-27T06:28:19.554Z,1022.64
2018-09-27T06:29:19.575Z,1022.61
2018-09-27T06:30:19.598Z,1022.65
2018-09-27T06:31:19.620Z,1022.62
2018-09-27T06:32:19.640Z,1022.63
2018-09-27T06:33:19.663Z,1022.69
2018-09-27T06:34:19.685Z,1022.59
2018-09-27T06:35:19.707Z,1022.62
2018-09-27T06:36:19.737Z,1022.63
2018-09-27T06:37:19.756Z,1022.65
2018-09-27T06:38:19.774Z,1022.64
2018-09-27T06:39:19.801Z,1022.66
2018-09-27T06:40:19.819Z,1022.66
2018-09-27T06:42:19.863Z,1022.65
2018-09-27T06:43:19.885Z,1022.69
2018-09-27T06:44:19.907Z,1022.69
2018-09-27T06:45:19.930Z,1022.73
2018-09-27T06:46:19.953Z,1022.7
2018-09-27T06:47:19.974Z,1022.67
2018-09-27T06:48:20.017Z,1022.72
2018-09-27T06:49:20.019Z,1022.75
2018-09-27T06:50:20.039Z,1022.74
2018-09-27T06:51:20.064Z,1022.79
2018-09-27T06:52:20.085Z,1022.81
2018-09-27T06:53:20.108Z,1022.77
2018-09-27T06:54:20.129Z,1022.81
2018-09-27T06:55:20.390Z,1022.81
2018-09-27T06:56:20.176Z,1022.82
2018-09-27T06:57:20.197Z,1022.85
2018-09-27T06:58:20.218Z,1022.84
2018-09-27T06:59:20.240Z,1022.78
2018-09-27T07:00:20.263Z,1022.87
2018-09-27T07:01:20.285Z,1022.84
2018-09-27T07:02:20.307Z,1022.86
2018-09-27T07:03:20.330Z,1022.89
2018-09-27T07:04:20.352Z,1022.9
2018-09-27T07:05:20.373Z,1022.88
2018-09-27T07:06:20.397Z,1022.82
2018-09-27T07:07:20.617Z,1022.82
2018-09-27T07:08:20.442Z,1022.85
2018-09-27T07:09:20.463Z,1022.82
2018-09-27T07:10:20.486Z,1022.8
2018-09-27T07:11:20.509Z,1022.85
2018-09-27T07:12:20.683Z,1022.8
2018-09-27T07:14:20.574Z,1022.82
2018-09-27T07:15:20.598Z,1022.82
2018-09-27T07:16:20.625Z,1022.84
2018-09-27T07:17:20.642Z,1022.84
2018-09-27T07:18:20.664Z,1022.85
2018-09-27T07:19:20.687Z,1022.87
2018-09-27T07:20:20.761Z,1022.89
2018-09-27T07:21:20.732Z,1022.93
2018-09-27T07:22:20.754Z,1022.87
2018-09-27T07:23:20.776Z,1022.9
2018-09-27T07:24:20.799Z,1022.89
2018-09-27T07:25:20.822Z,1022.92
2018-09-27T07:26:20.887Z,1022.93
2018-09-27T07:27:20.873Z,1022.94
2018-09-27T07:28:20.888Z,1022.97
2018-09-27T07:30:20.933Z,1022.93
2018-09-27T07:31:20.956Z,1022.94
2018-09-27T07:32:20.978Z,1022.96
2018-09-27T07:33:21.037Z,1022.93
2018-09-27T07:34:21.026Z,1022.88
2018-09-27T07:35:21.048Z,1022.92
2018-09-27T07:36:21.068Z,1022.94
2018-09-27T07:37:21.093Z,1022.92
2018-09-27T07:38:21.112Z,1022.9
2018-09-27T07:39:21.139Z,1022.93
2018-09-27T07:40:21.159Z,1022.89
2018-09-27T07:41:21.183Z,1022.95
2018-09-27T07:42:21.211Z,1022.92
2018-09-27T07:43:21.226Z,1022.93
2018-09-27T07:44:21.249Z,1022.93
2018-09-27T07:46:21.294Z,1022.99
2018-09-27T07:47:21.316Z,1022.92
2018-09-27T07:48:21.394Z,1023.01
2018-09-27T07:49:21.360Z,1022.99
2018-09-27T07:50:21.386Z,1022.97
2018-09-27T07:51:21.406Z,1022.98
2018-09-27T07:52:21.437Z,1023.04
2018-09-27T07:53:21.453Z,1022.99
2018-09-27T07:54:21.601Z,1022.99
2018-09-27T07:55:21.498Z,1022.98
2018-09-27T07:56:21.521Z,1022.96
2018-09-27T07:57:21.543Z,1022.96
2018-09-27T07:58:21.567Z,1023
2018-09-27T07:59:21.591Z,1022.97
2018-09-27T08:00:21.613Z,1022.96
2018-09-27T08:02:21.659Z,1023
2018-09-27T08:03:21.683Z,1023.05
2018-09-27T08:04:21.816Z,1022.98
2018-09-27T08:05:21.729Z,1023.06
2018-09-27T08:06:21.751Z,1022.94
2018-09-27T08:07:21.774Z,1022.97
2018-09-27T08:08:21.818Z,1022.96
2018-09-27T08:09:21.821Z,1022.97
2018-09-27T08:10:21.847Z,1022.98
2018-09-27T08:11:22.017Z,1022.92
2018-09-27T08:12:21.892Z,1022.89
2018-09-27T08:13:21.914Z,1022.93
2018-09-27T08:14:21.947Z,1022.91
2018-09-27T08:15:21.963Z,1022.92
2018-09-27T08:17:22.034Z,1022.96
2018-09-27T08:18:22.034Z,1022.9
2018-09-27T08:19:22.056Z,1022.91
2018-09-27T08:20:22.146Z,1022.89
2018-09-27T08:21:22.206Z,1022.92
2018-09-27T08:22:22.128Z,1022.96
2018-09-27T08:23:22.152Z,1022.89
2018-09-27T08:24:22.176Z,1022.94
2018-09-27T08:25:22.200Z,1022.92
2018-09-27T08:26:22.232Z,1022.92
2018-09-27T08:27:22.249Z,1022.94
2018-09-27T08:28:22.275Z,1022.95
2018-09-27T08:29:22.298Z,1022.9
2018-09-27T08:30:22.330Z,1022.88
2018-09-27T08:31:22.348Z,1022.87
2018-09-27T08:32:22.394Z,1022.93
2018-09-27T08:33:22.398Z,1022.94
2018-09-27T08:34:22.423Z,1022.89
2018-09-27T08:35:22.449Z,1022.93
2018-09-27T08:36:22.472Z,1022.91
2018-09-27T08:37:22.498Z,1022.9
2018-09-27T08:38:22.557Z,1022.88
2018-09-27T08:39:22.549Z,1022.84
2018-09-27T08:40:22.573Z,1022.86
2018-09-27T08:41:22.598Z,1022.85
2018-09-27T08:42:22.624Z,1022.84
2018-09-27T08:43:22.648Z,1022.87
2018-09-27T08:44:22.722Z,1022.82
2018-09-27T08:45:23.065Z,1022.76
2018-09-27T08:46:22.728Z,1022.72
2018-09-27T08:47:22.749Z,1022.73
2018-09-27T08:49:22.802Z,1022.74
2018-09-27T08:50:22.831Z,1022.77
2018-09-27T08:51:22.854Z,1022.77
2018-09-27T08:52:22.878Z,1022.73
2018-09-27T08:53:22.903Z,1022.74
2018-09-27T08:54:22.938Z,1022.75
2018-09-27T08:55:23.001Z,1022.76
2018-09-27T08:56:23.007Z,1022.81
2018-09-27T08:57:23.032Z,1022.77
2018-09-27T08:58:23.031Z,1022.74
2018-09-27T08:59:23.057Z,1022.79
2018-09-27T09:00:23.083Z,1022.8
2018-09-27T09:01:23.138Z,1022.77
2018-09-27T09:02:23.135Z,1022.78
2018-09-27T09:03:23.168Z,1022.71
2018-09-27T09:05:23.223Z,1022.74
2018-09-27T09:06:23.241Z,1022.72
2018-09-27T09:07:23.315Z,1022.69
2018-09-27T09:08:23.295Z,1022.69
2018-09-27T09:09:23.331Z,1022.68
2018-09-27T09:10:23.345Z,1022.65
2018-09-27T09:11:23.386Z,1022.65
2018-09-27T09:12:23.398Z,1022.65
2018-09-27T09:13:23.454Z,1022.62
2018-09-27T09:14:23.459Z,1022.6
2018-09-27T09:15:23.527Z,1022.6
2018-09-27T09:16:23.503Z,1022.61
2018-09-27T09:17:23.530Z,1022.58
2018-09-27T09:18:23.557Z,1022.61
2018-09-27T09:19:23.630Z,1022.6
2018-09-27T09:21:23.669Z,1022.59
2018-09-27T09:22:23.662Z,1022.55
2018-09-27T09:23:23.688Z,1022.56
2018-09-27T09:24:23.764Z,1022.51
2018-09-27T09:25:23.741Z,1022.54
2018-09-27T09:26:23.768Z,1022.5
2018-09-27T09:27:23.830Z,1022.59
2018-09-27T09:28:23.823Z,1022.56
2018-09-27T09:29:23.917Z,1022.56
2018-09-27T09:30:23.873Z,1022.57
2018-09-27T09:31:23.898Z,1022.59
2018-09-27T09:32:23.931Z,1022.65
2018-09-27T09:33:23.965Z,1022.66
2018-09-27T09:34:23.978Z,1022.63
2018-09-27T09:35:24.021Z,1022.57
2018-09-27T09:37:24.058Z,1022.55
2018-09-27T09:38:24.084Z,1022.54
2018-09-27T09:39:24.109Z,1022.49
2018-09-27T09:40:24.139Z,1022.5
2018-09-27T09:41:24.162Z,1022.52
2018-09-27T09:42:24.190Z,1022.46
2018-09-27T09:43:24.216Z,1022.46
2018-09-27T09:44:24.241Z,1022.49
2018-09-27T09:45:24.268Z,1022.45
2018-09-27T09:46:24.293Z,1022.45
2018-09-27T09:47:24.319Z,1022.44
2018-09-27T09:48:24.345Z,1022.49
2018-09-27T09:49:24.372Z,1022.44
2018-09-27T09:50:24.402Z,1022.48
2018-09-27T09:52:24.452Z,1022.42
2018-09-27T09:53:24.483Z,1022.44
2018-09-27T09:54:24.506Z,1022.47
2018-09-27T09:55:24.533Z,1022.49
2018-09-27T09:56:24.560Z,1022.52
2018-09-27T09:57:24.586Z,1022.44
2018-09-27T09:58:24.613Z,1022.52
2018-09-27T09:59:24.639Z,1022.44
2018-09-27T10:00:24.666Z,1022.46
2018-09-27T10:01:24.695Z,1022.43
2018-09-27T10:02:24.732Z,1022.45
2018-09-27T10:03:24.753Z,1022.41
2018-09-27T10:04:24.773Z,1022.4
2018-09-27T10:05:24.798Z,1022.47
2018-09-27T10:06:24.825Z,1022.41
2018-09-27T10:07:24.853Z,1022.45
2018-09-27T10:08:24.880Z,1022.42
2018-09-27T10:09:24.907Z,1022.42
2018-09-27T10:10:24.934Z,1022.43
2018-09-27T10:11:24.959Z,1022.37
2018-09-27T10:12:24.989Z,1022.4
2018-09-27T10:13:25.018Z,1022.31
2018-09-27T10:14:25.047Z,1022.37
2018-09-27T10:15:25.067Z,1022.28
2018-09-27T10:16:25.094Z,1022.36
2018-09-27T10:17:25.120Z,1022.31
2018-09-27T10:18:25.147Z,1022.35
2018-09-27T10:19:25.173Z,1022.28
2018-09-27T10:20:25.199Z,1022.26
2018-09-27T10:21:25.225Z,1022.22
2018-09-27T10:22:25.251Z,1022.23
2018-09-27T10:24:25.304Z,1022.18
2018-09-27T10:25:25.331Z,1022.17
2018-09-27T10:26:25.357Z,1022.15
2018-09-27T10:27:25.439Z,1022.15
2018-09-27T10:28:25.408Z,1022.13
2018-09-27T10:29:25.433Z,1022.18
2018-09-27T10:30:25.459Z,1022.11
2018-09-27T10:31:25.584Z,1022.11
2018-09-27T10:32:25.510Z,1022.05
2018-09-27T10:33:25.540Z,1022.05
2018-09-27T10:34:25.629Z,1022.09
2018-09-27T10:35:25.588Z,1022.02
2018-09-27T10:36:25.613Z,1022.02
2018-09-27T10:37:25.638Z,1022.04
2018-09-27T10:38:25.664Z,1022.03
2018-09-27T10:40:25.715Z,1021.99
2018-09-27T10:41:25.740Z,1021.98
2018-09-27T10:42:25.768Z,1021.98
2018-09-27T10:43:25.790Z,1021.96
2018-09-27T10:44:25.817Z,1021.95
2018-09-27T10:45:25.841Z,1021.93
2018-09-27T10:46:25.867Z,1021.95
2018-09-27T10:47:25.892Z,1021.91
2018-09-27T10:48:25.915Z,1021.91
2018-09-27T10:49:25.943Z,1021.96
2018-09-27T10:50:25.968Z,1021.89
2018-09-27T10:51:26.052Z,1021.89
2018-09-27T10:52:26.021Z,1021.89
2018-09-27T10:53:26.043Z,1021.9
2018-09-27T10:54:26.071Z,1021.88
2018-09-27T10:56:26.117Z,1021.81
2018-09-27T10:57:26.244Z,1021.8
2018-09-27T10:58:26.172Z,1021.87
2018-09-27T10:59:26.193Z,1021.79
2018-09-27T11:00:26.218Z,1021.76
2018-09-27T11:01:26.247Z,1021.83
2018-09-27T11:02:26.274Z,1021.75
2018-09-27T11:03:26.293Z,1021.78
2018-09-27T11:04:26.318Z,1021.71
2018-09-27T11:05:26.349Z,1021.77
2018-09-27T11:06:26.369Z,1021.72
2018-09-27T11:07:26.394Z,1021.74
2018-09-27T11:08:26.418Z,1021.7
2018-09-27T11:09:26.444Z,1021.77
2018-09-27T11:10:26.468Z,1021.75
2018-09-27T11:12:26.518Z,1021.78
2018-09-27T11:13:26.545Z,1021.74
2018-09-27T11:14:26.567Z,1021.7
2018-09-27T11:15:26.593Z,1021.78
2018-09-27T11:16:26.629Z,1021.72
2018-09-27T11:17:26.663Z,1021.74
2018-09-27T11:18:26.668Z,1021.69
2018-09-27T11:19:26.694Z,1021.61
2018-09-27T11:20:26.718Z,1021.61
2018-09-27T11:21:26.741Z,1021.66
2018-09-27T11:22:26.767Z,1021.62
2018-09-27T11:23:26.792Z,1021.61
2018-09-27T11:24:26.820Z,1021.6
2018-09-27T11:25:26.843Z,1021.53
2018-09-27T11:27:26.910Z,1021.46
2018-09-27T11:28:26.917Z,1021.43
2018-09-27T11:29:26.942Z,1021.39
2018-09-27T11:30:26.973Z,1021.5
2018-09-27T11:31:26.992Z,1021.45
2018-09-27T11:32:27.016Z,1021.45
2018-09-27T11:33:27.041Z,1021.46
2018-09-27T11:34:27.067Z,1021.43
2018-09-27T11:35:27.091Z,1021.37
2018-09-27T11:36:27.241Z,1021.32
2018-09-27T11:37:27.141Z,1021.32
2018-09-27T11:38:27.168Z,1021.26
2018-09-27T11:39:27.189Z,1021.24
2018-09-27T11:40:27.214Z,1021.3
2018-09-27T11:41:27.240Z,1021.26
2018-09-27T11:42:27.299Z,1021.24
2018-09-27T11:43:27.289Z,1021.23
2018-09-27T11:44:27.314Z,1021.24
2018-09-27T11:45:27.341Z,1021.25
2018-09-27T11:46:27.379Z,1021.2
2018-09-27T11:47:27.397Z,1021.22
2018-09-27T11:48:27.413Z,1021.26
2018-09-27T11:49:27.551Z,1021.23
2018-09-27T11:50:27.462Z,1021.2
2018-09-27T11:51:27.487Z,1021.2
2018-09-27T11:52:27.512Z,1021.18
2018-09-27T11:53:27.537Z,1021.22
2018-09-27T11:54:27.563Z,1021.18
2018-09-27T11:55:27.586Z,1021.16
2018-09-27T11:56:27.611Z,1021.17
2018-09-27T11:57:27.636Z,1021.17
2018-09-27T11:59:27.685Z,1021.05
2018-09-27T12:00:27.746Z,1021.09
2018-09-27T12:01:27.744Z,1021.05
2018-09-27T12:02:27.760Z,1021.03
2018-09-27T12:03:27.785Z,1021.05
2018-09-27T12:04:27.809Z,1021.08
2018-09-27T12:05:27.840Z,1021.04
2018-09-27T12:06:27.884Z,1021.04
2018-09-27T12:07:27.922Z,1021
2018-09-27T12:08:27.908Z,1020.98
2018-09-27T12:09:27.933Z,1020.96
2018-09-27T12:10:27.960Z,1020.96
2018-09-27T12:11:27.984Z,1020.93
2018-09-27T12:12:28.008Z,1020.94
2018-09-27T12:13:28.082Z,1020.96
2018-09-27T12:15:28.084Z,1020.9
2018-09-27T12:16:28.108Z,1020.94
2018-09-27T12:17:28.217Z,1020.89
2018-09-27T12:18:28.158Z,1020.87
2018-09-27T12:19:28.185Z,1020.85
2018-09-27T12:20:28.207Z,1020.85
2018-09-27T12:21:28.235Z,1020.84
2018-09-27T12:22:28.257Z,1020.81
2018-09-27T12:23:28.282Z,1020.76
2018-09-27T12:24:28.306Z,1020.77
2018-09-27T12:25:28.375Z,1020.81
2018-09-27T12:26:28.357Z,1020.76
2018-09-27T12:27:28.381Z,1020.78
2018-09-27T12:28:28.417Z,1020.65
2018-09-27T12:29:28.432Z,1020.71
2018-09-27T12:31:28.482Z,1020.67
2018-09-27T12:32:28.506Z,1020.64
2018-09-27T12:33:28.530Z,1020.7
2018-09-27T12:34:28.554Z,1020.7
2018-09-27T12:35:28.580Z,1020.65
2018-09-27T12:36:28.654Z,1020.68
2018-09-27T12:37:28.631Z,1020.61
2018-09-27T12:38:28.698Z,1020.64
2018-09-27T12:39:28.714Z,1020.63
2018-09-27T12:40:28.730Z,1020.58
2018-09-27T12:41:28.827Z,1020.57
2018-09-27T12:42:28.840Z,1020.55
2018-09-27T12:43:28.783Z,1020.54
2018-09-27T12:44:28.805Z,1020.53
2018-09-27T12:45:28.875Z,1020.49
2018-09-27T12:47:28.879Z,1020.47
2018-09-27T12:48:28.989Z,1020.45
2018-09-27T12:49:28.929Z,1020.45